Etusivu
METAR-TAF:

METAR-TAF

Lentoasemat :

Owen Robertsin kansainvälinen lentoasema

George Town, Grand Cayman, Caymansaaret

Leveyspiiri: 19-17N, Pituuspiiri: 081-21W, korkeus merenpinnasta: 3 m

Tämänhetkinen sää

Tämä raportti tehtiin 6 tuntia ja 31 minuuttia sitten, kello 03.00 UTC
Tuuli 8 kn idästä
Lämpötila 28°C
Kosteus 84%
Ilmanpaine 1014 hPa
Näkyvyys 10 km tai enemmän
ei pilviä alle 1500 m:ssä eikä cumulonimbus-pilviä

METAR: MWCR 200300Z 09008KT CAVOK 28/25 Q1014

Aika: 04:31 (09:31 UTC)

Sääennuste

Tämä raportti tehtiin 10 tuntia ja 31 minuuttia sitten, kello 23.00 UTC
Ennuste voimassa 20. päivästä klo 00 UTC - 20. päivään klo 24 UTC
Tuuli 8 kn idästä/kaakosta
Näkyvyys 10 km tai enemmän
Hajanaisia pilviä 1800 ft:n korkeudessa
Hajanaisia pilviä 3500 ft:n korkeudessa
sadekuuroja näköpiirissä

TAF: MWCR 192300Z 2000/2024 12008KT 9999 VCSH SCT018 SCT035

Säähavainnot ja -ennusteet yli 4000 lentoasemalta (METAR- ja TAF-raportit).

Käytössä olevat sääasemat on merkitty karttaan keltaisilla ja punaisilla pisteillä.

Aseta hiiri pisteen päälle nähdäksesi sääaseman nimen.

Klikkaa sitten nähdäksesi säähavainnot ja -ennusteet.

Kartan vaihtaminen: klikkaa mustalla rastilla varustettuja vihreitä pisteitä, niin voit zoomata sisään; viivalla varustettua vihreää pistettä, niin voit zoomata ulos tai vihreitä nuolia, niin pääset viereisille kartoille.


METAR-TAF: